createdAt,value
2023-04-06T00:01:13.495Z,1.80
2023-04-06T00:03:41.621Z,1.70
2023-04-06T00:06:11.196Z,1.70
2023-04-06T00:08:39.193Z,1.60
2023-04-06T00:11:07.273Z,1.60
2023-04-06T00:13:35.265Z,1.60
2023-04-06T00:16:03.325Z,1.60
2023-04-06T00:18:31.392Z,1.60
2023-04-06T00:20:59.509Z,1.50
2023-04-06T00:23:28.910Z,1.50
2023-04-06T00:25:56.931Z,1.50
2023-04-06T00:28:26.775Z,1.50
2023-04-06T00:30:56.302Z,1.50
2023-04-06T00:33:24.905Z,1.50
2023-04-06T00:35:53.256Z,1.50
2023-04-06T00:38:21.660Z,1.50
2023-04-06T00:40:51.089Z,1.50
2023-04-06T00:43:19.080Z,1.40
2023-04-06T00:45:47.626Z,1.40
2023-04-06T00:48:15.601Z,1.50
2023-04-06T00:50:44.184Z,1.50
2023-04-06T00:53:12.126Z,1.50
2023-04-06T00:55:41.158Z,1.50
2023-04-06T00:58:10.733Z,1.40
2023-04-06T01:00:48.094Z,1.40
2023-04-06T01:03:19.542Z,1.40
2023-04-06T01:05:49.295Z,1.40
2023-04-06T01:08:23.862Z,1.30
2023-04-06T01:10:56.915Z,1.40
2023-04-06T01:13:31.649Z,1.40
2023-04-06T01:16:07.123Z,1.30
2023-04-06T01:18:47.279Z,1.30
2023-04-06T01:21:30.946Z,1.30
2023-04-06T01:24:12.796Z,1.30
2023-04-06T01:26:59.580Z,1.20
2023-04-06T01:29:33.442Z,1.20
2023-04-06T01:32:06.354Z,1.20
2023-04-06T01:34:39.468Z,1.20
2023-04-06T01:37:08.067Z,1.20
2023-04-06T01:39:38.172Z,1.20
2023-04-06T01:42:08.555Z,1.20
2023-04-06T01:44:39.739Z,1.20
2023-04-06T01:47:13.523Z,1.10
2023-04-06T01:49:41.863Z,1.10
2023-04-06T01:52:10.356Z,1.10
2023-04-06T01:54:43.376Z,1.00
2023-04-06T01:57:17.059Z,1.10
2023-04-06T01:59:52.398Z,1.20
2023-04-06T02:02:29.465Z,1.10
2023-04-06T02:05:09.020Z,1.10
2023-04-06T02:07:38.060Z,1.10
2023-04-06T02:10:13.674Z,1.00
2023-04-06T02:12:46.124Z,1.00
2023-04-06T02:15:21.644Z,1.00
2023-04-06T02:17:49.793Z,1.00
2023-04-06T02:20:18.130Z,0.90
2023-04-06T02:22:46.495Z,0.90
2023-04-06T02:25:15.838Z,1.00
2023-04-06T02:27:43.997Z,0.90
2023-04-06T02:30:13.339Z,0.90
2023-04-06T02:32:41.368Z,0.90
2023-04-06T02:35:10.600Z,0.90
2023-04-06T02:37:39.924Z,0.80
2023-04-06T02:40:09.072Z,0.80
2023-04-06T02:42:38.434Z,0.80
2023-04-06T02:45:08.340Z,0.80
2023-04-06T02:47:43.407Z,0.80
2023-04-06T02:50:14.392Z,0.80
2023-04-06T02:52:49.606Z,0.70
2023-04-06T02:55:18.032Z,0.70
2023-04-06T02:57:48.080Z,0.80
2023-04-06T03:00:16.986Z,0.70
2023-04-06T03:02:45.045Z,0.70
2023-04-06T03:05:16.916Z,0.70
2023-04-06T03:07:46.819Z,0.70
2023-04-06T03:10:22.454Z,0.70
2023-04-06T03:12:52.511Z,0.70
2023-04-06T03:15:26.220Z,0.70
2023-04-06T03:18:02.358Z,0.80
2023-04-06T03:20:41.757Z,0.70
2023-04-06T03:23:11.128Z,0.70
2023-04-06T03:25:42.653Z,0.70
2023-04-06T03:28:16.898Z,0.60
2023-04-06T03:30:51.815Z,0.60
2023-04-06T03:33:27.979Z,0.60
2023-04-06T03:35:57.185Z,0.60
2023-04-06T03:38:27.310Z,0.60
2023-04-06T03:40:56.582Z,0.60
2023-04-06T03:43:29.306Z,0.60
2023-04-06T03:45:57.307Z,0.60
2023-04-06T03:48:25.321Z,0.60
2023-04-06T03:50:53.447Z,0.60
2023-04-06T03:53:21.500Z,0.60
2023-04-06T03:55:49.509Z,0.60
2023-04-06T03:58:17.423Z,0.60
2023-04-06T04:00:46.781Z,0.60
2023-04-06T04:03:15.663Z,0.60
2023-04-06T04:05:44.881Z,0.50
2023-04-06T04:08:13.954Z,0.50
2023-04-06T04:10:42.818Z,0.50
2023-04-06T04:13:11.264Z,0.50
2023-04-06T04:15:39.356Z,0.50
2023-04-06T04:18:08.906Z,0.40
2023-04-06T04:20:36.976Z,0.40
2023-04-06T04:23:05.029Z,0.40
2023-04-06T04:25:35.153Z,0.30
2023-04-06T04:28:03.405Z,0.30
2023-04-06T04:30:32.281Z,0.30
2023-04-06T04:33:00.481Z,0.30
2023-04-06T04:35:31.435Z,0.30
2023-04-06T04:37:59.708Z,0.30
2023-04-06T04:40:27.696Z,0.30
2023-04-06T04:43:04.427Z,0.30
2023-04-06T04:45:35.828Z,0.30
2023-04-06T04:48:16.893Z,0.30
2023-04-06T04:51:03.048Z,0.30
2023-04-06T04:53:42.903Z,0.30
2023-04-06T04:56:21.329Z,0.40
2023-04-06T04:58:53.893Z,0.50
2023-04-06T05:01:23.143Z,0.60
2023-04-06T05:03:52.509Z,0.60
2023-04-06T05:06:22.116Z,0.70
2023-04-06T05:08:50.267Z,0.80
2023-04-06T05:11:20.028Z,0.90
2023-04-06T05:13:55.927Z,1.00
2023-04-06T05:16:26.321Z,1.00
2023-04-06T05:18:57.708Z,1.10
2023-04-06T05:21:30.795Z,1.20
2023-04-06T05:24:08.102Z,1.30
2023-04-06T05:26:36.501Z,1.30
2023-04-06T05:29:10.865Z,1.30
2023-04-06T05:31:40.179Z,1.30
2023-04-06T05:34:10.283Z,1.30
2023-04-06T05:36:41.264Z,1.40
2023-04-06T05:39:18.315Z,1.40
2023-04-06T05:41:50.996Z,1.50
2023-04-06T05:44:27.684Z,1.60
2023-04-06T05:47:04.533Z,1.70
2023-04-06T05:49:32.755Z,1.80
2023-04-06T05:52:02.489Z,1.90
2023-04-06T05:54:31.687Z,2.10
2023-04-06T05:57:04.183Z,2.20
2023-04-06T05:59:32.980Z,2.30
2023-04-06T06:02:02.206Z,2.30
2023-04-06T06:04:33.797Z,2.40
2023-04-06T06:07:03.208Z,2.50
2023-04-06T06:09:38.177Z,2.60
2023-04-06T06:12:17.488Z,2.80
2023-04-06T06:14:45.824Z,2.90
2023-04-06T06:17:16.092Z,3.10
2023-04-06T06:19:48.452Z,3.20
2023-04-06T06:22:18.624Z,3.40
2023-04-06T06:24:48.703Z,3.50
2023-04-06T06:27:20.035Z,3.60
2023-04-06T06:29:49.375Z,3.80
2023-04-06T06:32:17.960Z,3.90
2023-04-06T06:34:49.802Z,4.10
2023-04-06T06:37:20.967Z,4.20
2023-04-06T06:39:50.770Z,4.40
2023-04-06T06:42:20.464Z,4.60
2023-04-06T06:45:10.136Z,4.70
2023-04-06T06:47:38.260Z,5.00
2023-04-06T06:50:07.644Z,5.10
2023-04-06T06:52:37.030Z,5.30
2023-04-06T06:55:05.369Z,5.60
2023-04-06T06:57:33.334Z,5.70
2023-04-06T07:00:01.787Z,5.90
2023-04-06T07:02:31.758Z,6.00
2023-04-06T07:04:59.765Z,6.10
2023-04-06T07:07:27.772Z,6.20
2023-04-06T07:09:57.126Z,6.30
2023-04-06T07:12:25.334Z,6.30
2023-04-06T07:14:53.693Z,6.40
2023-04-06T07:17:21.987Z,6.50
2023-04-06T07:19:50.019Z,6.50
2023-04-06T07:22:17.971Z,6.60
2023-04-06T07:24:45.941Z,6.60
2023-04-06T07:27:17.948Z,6.70
2023-04-06T07:29:46.940Z,6.80
2023-04-06T07:32:14.953Z,6.90
2023-04-06T07:34:43.061Z,7.10
2023-04-06T07:37:11.252Z,7.30
2023-04-06T07:39:39.467Z,7.40
2023-04-06T07:42:07.585Z,7.60
2023-04-06T07:44:37.138Z,7.90
2023-04-06T07:47:05.321Z,8.10
2023-04-06T07:49:33.981Z,8.30
2023-04-06T07:52:03.956Z,8.60
2023-04-06T07:54:33.061Z,8.80
2023-04-06T07:57:01.078Z,9.10
2023-04-06T07:59:29.163Z,9.30
2023-04-06T08:01:58.513Z,9.50
2023-04-06T08:04:26.673Z,9.60
2023-04-06T08:06:54.628Z,9.90
2023-04-06T08:09:22.827Z,10.10
2023-04-06T08:11:50.802Z,10.30
2023-04-06T08:14:18.803Z,10.40
2023-04-06T08:16:46.758Z,10.50
2023-04-06T08:19:18.095Z,10.60
2023-04-06T08:21:46.914Z,10.70
2023-04-06T08:24:14.928Z,10.70
2023-04-06T08:26:43.529Z,11.00
2023-04-06T08:29:12.356Z,11.20
2023-04-06T08:31:40.530Z,11.40
2023-04-06T08:34:10.917Z,11.50
2023-04-06T08:36:43.131Z,11.60
2023-04-06T08:39:11.114Z,11.70
2023-04-06T08:41:39.325Z,11.80
2023-04-06T08:44:07.617Z,11.90
2023-04-06T08:46:36.095Z,12.00
2023-04-06T08:49:07.681Z,11.90
2023-04-06T08:51:38.864Z,11.90
2023-04-06T08:54:09.062Z,12.00
2023-04-06T08:56:40.731Z,12.10
2023-04-06T08:59:09.882Z,12.10
2023-04-06T09:01:42.123Z,12.10
2023-04-06T09:04:12.286Z,12.10
2023-04-06T09:06:41.953Z,12.20
2023-04-06T09:09:12.565Z,12.20
2023-04-06T09:11:48.118Z,12.20
2023-04-06T09:14:17.460Z,12.30
2023-04-06T09:16:47.171Z,12.30
2023-04-06T09:19:15.526Z,12.50
2023-04-06T09:21:43.585Z,12.70
2023-04-06T09:24:12.908Z,12.90
2023-04-06T09:26:50.153Z,12.90
2023-04-06T09:29:26.990Z,13.00
2023-04-06T09:32:03.549Z,13.10
2023-04-06T09:34:31.813Z,13.00
2023-04-06T09:36:59.968Z,13.20
2023-04-06T09:39:29.324Z,13.20
2023-04-06T09:41:57.656Z,13.20
2023-04-06T09:44:26.984Z,13.30
2023-04-06T09:47:00.386Z,13.30
2023-04-06T09:49:32.402Z,13.30
2023-04-06T09:52:03.688Z,13.20
2023-04-06T09:54:33.733Z,13.10
2023-04-06T09:57:11.288Z,13.10
2023-04-06T09:59:50.881Z,13.00
2023-04-06T10:02:29.660Z,13.10
2023-04-06T10:05:04.638Z,13.20
2023-04-06T10:07:33.638Z,13.20
2023-04-06T10:10:05.175Z,13.20
2023-04-06T10:12:33.703Z,13.30
2023-04-06T10:15:01.923Z,13.60
2023-04-06T10:17:30.265Z,13.60
2023-04-06T10:20:05.789Z,13.60
2023-04-06T10:22:40.074Z,13.30
2023-04-06T10:25:10.551Z,13.40
2023-04-06T10:27:38.511Z,13.30
2023-04-06T10:30:08.398Z,13.20
2023-04-06T10:32:37.951Z,13.20
2023-04-06T10:35:10.606Z,13.20
2023-04-06T10:37:49.902Z,13.50
2023-04-06T10:40:25.455Z,13.80
2023-04-06T10:42:53.960Z,13.80
2023-04-06T10:45:22.904Z,13.70
2023-04-06T10:47:51.484Z,13.60
2023-04-06T10:50:19.491Z,13.80
2023-04-06T10:52:48.374Z,13.90
2023-04-06T10:55:17.408Z,13.90
2023-04-06T10:57:48.602Z,14.10
2023-04-06T11:00:17.450Z,14.10
2023-04-06T11:02:45.440Z,14.10
2023-04-06T11:05:15.067Z,14.10
2023-04-06T11:07:43.212Z,14.10
2023-04-06T11:10:16.838Z,14.00
2023-04-06T11:12:47.155Z,14.00
2023-04-06T11:15:15.106Z,13.90
2023-04-06T11:17:43.124Z,13.80
2023-04-06T11:20:12.944Z,13.80
2023-04-06T11:22:50.860Z,13.90
2023-04-06T11:25:19.385Z,14.10
2023-04-06T11:27:49.148Z,14.20
2023-04-06T11:30:17.297Z,14.20
2023-04-06T11:32:46.421Z,14.20
2023-04-06T11:35:21.998Z,14.30
2023-04-06T11:37:51.301Z,14.40
2023-04-06T11:40:25.551Z,14.40
2023-04-06T11:42:58.608Z,14.30
2023-04-06T11:45:27.084Z,14.30
2023-04-06T11:48:00.155Z,14.30
2023-04-06T11:50:34.054Z,14.10
2023-04-06T11:53:03.604Z,14.10
2023-04-06T11:55:39.064Z,14.00
2023-04-06T11:58:09.154Z,13.80
2023-04-06T12:00:38.087Z,13.70
2023-04-06T12:03:06.291Z,13.60
2023-04-06T12:05:35.508Z,13.60
2023-04-06T12:08:03.860Z,13.60
2023-04-06T12:10:31.960Z,13.70
2023-04-06T12:13:00.115Z,13.60
2023-04-06T12:15:29.434Z,13.60
2023-04-06T12:17:58.262Z,13.60
2023-04-06T12:20:27.400Z,13.60
2023-04-06T12:22:55.993Z,13.60
2023-04-06T12:25:24.050Z,13.60
2023-04-06T12:27:52.157Z,13.70
2023-04-06T12:30:20.401Z,13.60
2023-04-06T12:32:51.269Z,13.80
2023-04-06T12:35:19.602Z,13.70
2023-04-06T12:37:47.636Z,13.70
2023-04-06T12:40:15.982Z,13.70
2023-04-06T12:42:43.976Z,13.60
2023-04-06T12:45:12.702Z,13.70
2023-04-06T12:47:40.920Z,13.60
2023-04-06T12:50:11.224Z,13.60
2023-04-06T12:52:39.356Z,13.60
2023-04-06T12:55:08.310Z,13.60
2023-04-06T12:57:36.383Z,13.50
2023-04-06T13:00:05.991Z,13.50
2023-04-06T13:02:37.477Z,13.50
2023-04-06T13:05:06.224Z,13.50
2023-04-06T13:07:35.635Z,13.40
2023-04-06T13:10:03.732Z,13.40
2023-04-06T13:12:31.712Z,13.40
2023-04-06T13:14:59.616Z,13.40
2023-04-06T13:17:29.815Z,13.50
2023-04-06T13:19:58.025Z,13.40
2023-04-06T13:22:25.970Z,13.40
2023-04-06T13:24:55.470Z,13.50
2023-04-06T13:27:23.476Z,13.50
2023-04-06T13:29:51.739Z,13.50
2023-04-06T13:32:19.687Z,13.50
2023-04-06T13:34:49.685Z,13.50
2023-04-06T13:37:17.905Z,13.60
2023-04-06T13:39:45.930Z,13.50
2023-04-06T13:42:15.218Z,13.50
2023-04-06T13:44:44.422Z,13.60
2023-04-06T13:47:13.306Z,13.70
2023-04-06T13:49:43.880Z,13.70
2023-04-06T13:52:12.077Z,13.60
2023-04-06T13:54:41.591Z,13.60
2023-04-06T13:57:09.441Z,13.60
2023-04-06T13:59:39.390Z,13.60
2023-04-06T14:02:09.313Z,13.60
2023-04-06T14:04:37.541Z,13.60
2023-04-06T14:07:08.090Z,13.60
2023-04-06T14:09:35.994Z,13.70
2023-04-06T14:12:03.816Z,13.60
2023-04-06T14:14:31.721Z,13.60
2023-04-06T14:17:01.009Z,13.50
2023-04-06T14:19:29.064Z,13.50
2023-04-06T14:21:57.229Z,13.50
2023-04-06T14:24:25.469Z,13.50
2023-04-06T14:26:53.585Z,13.50
2023-04-06T14:29:21.486Z,13.50
2023-04-06T14:31:49.933Z,13.50
2023-04-06T14:34:19.161Z,13.40
2023-04-06T14:36:47.167Z,13.40
2023-04-06T14:39:15.080Z,13.30
2023-04-06T14:41:42.937Z,13.30
2023-04-06T14:44:12.996Z,13.40
2023-04-06T14:46:41.102Z,13.50
2023-04-06T14:49:09.689Z,13.50
2023-04-06T14:51:39.052Z,13.50
2023-04-06T14:54:07.038Z,13.40
2023-04-06T14:56:34.917Z,13.30
2023-04-06T14:59:03.890Z,13.20
2023-04-06T15:01:36.472Z,13.20
2023-04-06T15:04:05.030Z,13.20
2023-04-06T15:06:33.030Z,13.30
2023-04-06T15:09:03.487Z,13.40
2023-04-06T15:11:31.453Z,13.40
2023-04-06T15:13:59.246Z,13.30
2023-04-06T15:16:27.524Z,13.30
2023-04-06T15:18:55.516Z,13.20
2023-04-06T15:21:23.439Z,13.30
2023-04-06T15:23:52.167Z,13.30
2023-04-06T15:26:22.247Z,13.20
2023-04-06T15:28:50.504Z,13.20
2023-04-06T15:33:50.417Z,13.30
2023-04-06T15:36:25.794Z,13.30
2023-04-06T15:38:53.712Z,13.20
2023-04-06T15:41:22.990Z,13.30
2023-04-06T15:43:51.390Z,13.20
2023-04-06T15:46:19.413Z,13.10
2023-04-06T15:48:47.579Z,13.20
2023-04-06T15:51:16.530Z,13.10
2023-04-06T15:53:44.639Z,13.10
2023-04-06T15:56:14.339Z,13.10
2023-04-06T15:58:43.692Z,13.10
2023-04-06T16:01:15.515Z,13.00
2023-04-06T16:03:44.354Z,13.10
2023-04-06T16:06:13.273Z,13.10
2023-04-06T16:08:42.050Z,13.00
2023-04-06T16:11:10.393Z,13.00
2023-04-06T16:13:38.398Z,13.00
2023-04-06T16:16:08.805Z,12.90
2023-04-06T16:18:37.779Z,12.90
2023-04-06T16:21:06.032Z,12.90
2023-04-06T16:23:34.164Z,12.80
2023-04-06T16:26:02.364Z,12.90
2023-04-06T16:28:31.374Z,12.80
2023-04-06T16:30:59.208Z,12.80
2023-04-06T16:33:28.555Z,12.70
2023-04-06T16:35:56.351Z,12.70
2023-04-06T16:38:29.918Z,12.70
2023-04-06T16:41:02.035Z,12.70
2023-04-06T16:43:29.958Z,12.60
2023-04-06T16:45:57.823Z,12.60
2023-04-06T16:48:25.805Z,12.60
2023-04-06T16:50:56.113Z,12.50
2023-04-06T16:53:23.994Z,12.50
2023-04-06T16:55:51.873Z,12.40
2023-04-06T16:58:19.884Z,12.40
2023-04-06T17:00:47.692Z,12.40
2023-04-06T17:03:15.879Z,12.30
2023-04-06T17:05:45.220Z,12.30
2023-04-06T17:08:14.507Z,12.30
2023-04-06T17:13:14.942Z,12.10
2023-04-06T17:15:44.007Z,12.10
2023-04-06T17:18:12.796Z,12.00
2023-04-06T17:20:41.245Z,11.90
2023-04-06T17:23:09.202Z,11.90
2023-04-06T17:25:38.936Z,11.80
2023-04-06T17:28:06.855Z,11.60
2023-04-06T17:30:34.846Z,11.50
2023-04-06T17:33:02.827Z,11.40
2023-04-06T17:35:30.848Z,11.30
2023-04-06T17:37:58.713Z,11.30
2023-04-06T17:40:26.701Z,11.10
2023-04-06T17:42:56.001Z,11.10
2023-04-06T17:45:23.858Z,11.00
2023-04-06T17:47:51.648Z,10.90
2023-04-06T17:50:19.824Z,10.80
2023-04-06T17:52:49.468Z,10.80
2023-04-06T17:55:17.454Z,10.70
2023-04-06T17:57:46.468Z,10.60
2023-04-06T18:00:19.867Z,10.50
2023-04-06T18:02:47.819Z,10.40
2023-04-06T18:05:15.763Z,10.40
2023-04-06T18:07:43.661Z,10.30
2023-04-06T18:10:12.558Z,10.20
2023-04-06T18:12:40.798Z,10.20
2023-04-06T18:15:09.213Z,10.10
2023-04-06T18:17:38.594Z,10.00
2023-04-06T18:20:07.409Z,10.00
2023-04-06T18:22:36.579Z,9.90
2023-04-06T18:25:04.547Z,9.90
2023-04-06T18:27:33.422Z,9.80
2023-04-06T18:30:01.336Z,9.80
2023-04-06T18:32:30.625Z,9.70
2023-04-06T18:35:00.446Z,9.70
2023-04-06T18:37:28.326Z,9.70
2023-04-06T18:39:56.143Z,9.60
2023-04-06T18:42:24.055Z,9.50
2023-04-06T18:44:51.849Z,9.50
2023-04-06T18:47:19.743Z,9.40
2023-04-06T18:49:47.591Z,9.30
2023-04-06T18:52:16.768Z,9.30
2023-04-06T18:54:44.777Z,9.20
2023-04-06T18:57:13.334Z,9.10
2023-04-06T18:59:41.231Z,9.10
2023-04-06T19:02:09.153Z,9.10
2023-04-06T19:04:37.241Z,9.00
2023-04-06T19:07:05.230Z,9.00
2023-04-06T19:09:34.518Z,9.00
2023-04-06T19:12:02.302Z,8.90
2023-04-06T19:14:32.568Z,8.90
2023-04-06T19:17:01.301Z,8.90
2023-04-06T19:19:29.161Z,8.90
2023-04-06T19:21:58.187Z,8.80
2023-04-06T19:24:27.876Z,8.80
2023-04-06T19:26:57.767Z,8.80
2023-04-06T19:29:25.658Z,8.70
2023-04-06T19:31:53.511Z,8.70
2023-04-06T19:34:21.590Z,8.70
2023-04-06T19:36:49.568Z,8.70
2023-04-06T19:39:18.034Z,8.60
2023-04-06T19:41:45.964Z,8.60
2023-04-06T19:44:15.258Z,8.50
2023-04-06T19:46:46.149Z,8.50
2023-04-06T19:49:14.571Z,8.50
2023-04-06T19:51:42.416Z,8.40
2023-04-06T19:54:10.356Z,8.40
2023-04-06T19:56:39.504Z,8.40
2023-04-06T19:59:07.459Z,8.40
2023-04-06T20:01:36.837Z,8.40
2023-04-06T20:04:05.035Z,8.40
2023-04-06T20:06:33.346Z,8.30
2023-04-06T20:09:01.232Z,8.30
2023-04-06T20:11:29.108Z,8.30
2023-04-06T20:13:56.967Z,8.30
2023-04-06T20:16:25.016Z,8.20
2023-04-06T20:18:54.279Z,8.30
2023-04-06T20:21:22.203Z,8.20
2023-04-06T20:23:50.296Z,8.20
2023-04-06T20:26:18.300Z,8.20
2023-04-06T20:28:46.319Z,8.20
2023-04-06T20:31:14.264Z,8.20
2023-04-06T20:33:42.208Z,8.20
2023-04-06T20:36:12.569Z,8.20
2023-04-06T20:38:40.487Z,8.10
2023-04-06T20:41:09.052Z,8.10
2023-04-06T20:43:37.961Z,8.10
2023-04-06T20:46:07.348Z,8.00
2023-04-06T20:48:37.907Z,8.00
2023-04-06T20:51:06.396Z,8.00
2023-04-06T20:53:35.609Z,8.00
2023-04-06T20:56:03.909Z,7.90
2023-04-06T20:58:31.845Z,7.90
2023-04-06T21:00:59.767Z,7.90
2023-04-06T21:03:27.805Z,7.90
2023-04-06T21:05:57.228Z,7.80
2023-04-06T21:08:25.174Z,7.80
2023-04-06T21:10:54.419Z,7.70
2023-04-06T21:13:22.270Z,7.70
2023-04-06T21:15:51.507Z,7.60
2023-04-06T21:18:19.575Z,7.60
2023-04-06T21:20:47.599Z,7.60
2023-04-06T21:23:16.122Z,7.60
2023-04-06T21:25:44.012Z,7.60
2023-04-06T21:28:13.196Z,7.60
2023-04-06T21:30:41.850Z,7.60
2023-04-06T21:33:10.990Z,7.50
2023-04-06T21:35:39.911Z,7.50
2023-04-06T21:38:08.245Z,7.50
2023-04-06T21:40:37.570Z,7.50
2023-04-06T21:43:05.503Z,7.50
2023-04-06T21:45:34.682Z,7.50
2023-04-06T21:48:02.584Z,7.40
2023-04-06T21:50:30.418Z,7.40
2023-04-06T21:52:58.279Z,7.40
2023-04-06T21:55:26.075Z,7.40
2023-04-06T21:57:53.943Z,7.40
2023-04-06T22:00:22.061Z,7.40
2023-04-06T22:02:51.511Z,7.40
2023-04-06T22:05:19.614Z,7.30
2023-04-06T22:07:47.519Z,7.30
2023-04-06T22:10:17.172Z,7.30
2023-04-06T22:12:45.149Z,7.30
2023-04-06T22:15:14.299Z,7.20
2023-04-06T22:17:42.255Z,7.20
2023-04-06T22:20:11.678Z,7.30
2023-04-06T22:22:39.927Z,7.20
2023-04-06T22:25:08.764Z,7.20
2023-04-06T22:27:36.722Z,7.10
2023-04-06T22:30:05.112Z,7.10
2023-04-06T22:32:33.225Z,7.10
2023-04-06T22:35:01.120Z,7.10
2023-04-06T22:37:30.403Z,7.10
2023-04-06T22:39:58.254Z,7.10
2023-04-06T22:42:26.248Z,7.10
2023-04-06T22:44:54.049Z,7.00
2023-04-06T22:47:21.969Z,7.00
2023-04-06T22:49:49.853Z,7.00
2023-04-06T22:52:17.737Z,7.00
2023-04-06T22:54:47.525Z,6.90
2023-04-06T22:57:15.939Z,6.90
2023-04-06T22:59:43.798Z,6.90
2023-04-06T23:02:11.792Z,6.90
2023-04-06T23:04:39.667Z,6.80
2023-04-06T23:07:07.678Z,6.80
2023-04-06T23:09:35.459Z,6.80
2023-04-06T23:12:04.888Z,6.70
2023-04-06T23:14:32.963Z,6.70
2023-04-06T23:17:00.976Z,6.70
2023-04-06T23:19:28.960Z,6.70
2023-04-06T23:21:56.842Z,6.70
2023-04-06T23:24:24.712Z,6.60
2023-04-06T23:26:52.744Z,6.60
2023-04-06T23:29:21.968Z,6.60
2023-04-06T23:31:49.903Z,6.50
2023-04-06T23:34:17.706Z,6.50
2023-04-06T23:36:46.112Z,6.50
2023-04-06T23:39:13.996Z,6.50
2023-04-06T23:41:42.998Z,6.50
2023-04-06T23:44:10.846Z,6.50
2023-04-06T23:46:40.173Z,6.40
2023-04-06T23:49:08.073Z,6.40
2023-04-06T23:51:36.163Z,6.40
2023-04-06T23:54:04.803Z,6.30
2023-04-06T23:56:32.799Z,6.30
2023-04-06T23:59:00.602Z,6.30
